sensor_id;sensor_type;location;lat;lon;timestamp;P1;durP1;ratioP1;P2;durP2;ratioP2
25449;SDS011;13371;52.080;5.624;2024-03-08T00:00:07;34.20;;;13.02;;
25449;SDS011;13371;52.080;5.624;2024-03-08T00:02:35;31.27;;;13.63;;
25449;SDS011;13371;52.080;5.624;2024-03-08T00:05:02;31.00;;;12.27;;
25449;SDS011;13371;52.080;5.624;2024-03-08T00:07:31;33.33;;;12.80;;
25449;SDS011;13371;52.080;5.624;2024-03-08T00:09:56;32.72;;;13.02;;
25449;SDS011;13371;52.080;5.624;2024-03-08T00:12:22;27.30;;;13.40;;
25449;SDS011;13371;52.080;5.624;2024-03-08T00:14:48;29.33;;;12.77;;
25449;SDS011;13371;52.080;5.624;2024-03-08T00:17:14;29.15;;;12.25;;
25449;SDS011;13371;52.080;5.624;2024-03-08T00:19:40;29.15;;;12.82;;
25449;SDS011;13371;52.080;5.624;2024-03-08T00:22:06;27.42;;;12.43;;
25449;SDS011;13371;52.080;5.624;2024-03-08T00:24:32;27.40;;;11.70;;
25449;SDS011;13371;52.080;5.624;2024-03-08T00:26:58;35.83;;;13.27;;
25449;SDS011;13371;52.080;5.624;2024-03-08T00:29:24;26.58;;;12.73;;
25449;SDS011;13371;52.080;5.624;2024-03-08T00:31:49;29.00;;;12.85;;
25449;SDS011;13371;52.080;5.624;2024-03-08T00:34:15;35.53;;;13.93;;
25449;SDS011;13371;52.080;5.624;2024-03-08T00:36:40;28.58;;;11.98;;
25449;SDS011;13371;52.080;5.624;2024-03-08T00:39:06;28.60;;;12.50;;
25449;SDS011;13371;52.080;5.624;2024-03-08T00:41:32;32.63;;;12.63;;
25449;SDS011;13371;52.080;5.624;2024-03-08T00:43:58;29.95;;;11.60;;
25449;SDS011;13371;52.080;5.624;2024-03-08T00:46:23;28.75;;;11.68;;
25449;SDS011;13371;52.080;5.624;2024-03-08T00:48:49;33.33;;;12.85;;
25449;SDS011;13371;52.080;5.624;2024-03-08T00:51:14;34.50;;;13.57;;
25449;SDS011;13371;52.080;5.624;2024-03-08T00:53:41;30.25;;;12.77;;
25449;SDS011;13371;52.080;5.624;2024-03-08T00:56:08;28.25;;;12.65;;
25449;SDS011;13371;52.080;5.624;2024-03-08T00:58:36;27.17;;;11.88;;
25449;SDS011;13371;52.080;5.624;2024-03-08T01:01:02;34.05;;;14.38;;
25449;SDS011;13371;52.080;5.624;2024-03-08T01:03:27;29.83;;;12.60;;
25449;SDS011;13371;52.080;5.624;2024-03-08T01:05:56;29.55;;;12.52;;
25449;SDS011;13371;52.080;5.624;2024-03-08T01:08:22;30.73;;;12.30;;
25449;SDS011;13371;52.080;5.624;2024-03-08T01:10:48;27.67;;;12.55;;
25449;SDS011;13371;52.080;5.624;2024-03-08T01:13:15;27.70;;;12.27;;
25449;SDS011;13371;52.080;5.624;2024-03-08T01:15:41;26.92;;;12.93;;
25449;SDS011;13371;52.080;5.624;2024-03-08T01:18:07;29.35;;;12.25;;
25449;SDS011;13371;52.080;5.624;2024-03-08T01:20:33;28.48;;;12.80;;
25449;SDS011;13371;52.080;5.624;2024-03-08T01:22:58;28.38;;;13.27;;
25449;SDS011;13371;52.080;5.624;2024-03-08T01:25:24;26.60;;;12.73;;
25449;SDS011;13371;52.080;5.624;2024-03-08T01:27:49;29.58;;;12.30;;
25449;SDS011;13371;52.080;5.624;2024-03-08T01:30:15;27.80;;;12.05;;
25449;SDS011;13371;52.080;5.624;2024-03-08T01:32:42;25.60;;;12.52;;
25449;SDS011;13371;52.080;5.624;2024-03-08T01:35:09;27.13;;;13.18;;
25449;SDS011;13371;52.080;5.624;2024-03-08T01:37:35;30.52;;;13.10;;
25449;SDS011;13371;52.080;5.624;2024-03-08T01:40:01;27.27;;;13.15;;
25449;SDS011;13371;52.080;5.624;2024-03-08T01:42:27;29.15;;;12.40;;
25449;SDS011;13371;52.080;5.624;2024-03-08T01:44:53;30.40;;;11.40;;
25449;SDS011;13371;52.080;5.624;2024-03-08T01:47:19;25.95;;;12.23;;
25449;SDS011;13371;52.080;5.624;2024-03-08T01:49:48;29.83;;;12.50;;
25449;SDS011;13371;52.080;5.624;2024-03-08T01:52:17;31.00;;;11.98;;
25449;SDS011;13371;52.080;5.624;2024-03-08T01:54:45;33.08;;;13.70;;
25449;SDS011;13371;52.080;5.624;2024-03-08T01:57:11;36.13;;;14.32;;
25449;SDS011;13371;52.080;5.624;2024-03-08T01:59:38;31.73;;;12.63;;
25449;SDS011;13371;52.080;5.624;2024-03-08T02:02:05;28.15;;;13.30;;
25449;SDS011;13371;52.080;5.624;2024-03-08T02:04:33;36.22;;;13.65;;
25449;SDS011;13371;52.080;5.624;2024-03-08T02:06:59;26.27;;;12.77;;
25449;SDS011;13371;52.080;5.624;2024-03-08T02:09:25;32.38;;;13.85;;
25449;SDS011;13371;52.080;5.624;2024-03-08T02:11:51;27.35;;;12.73;;
25449;SDS011;13371;52.080;5.624;2024-03-08T02:14:17;30.58;;;13.77;;
25449;SDS011;13371;52.080;5.624;2024-03-08T02:16:43;32.58;;;14.50;;
25449;SDS011;13371;52.080;5.624;2024-03-08T02:19:09;28.85;;;12.55;;
25449;SDS011;13371;52.080;5.624;2024-03-08T02:21:35;33.45;;;13.60;;
25449;SDS011;13371;52.080;5.624;2024-03-08T02:24:01;29.98;;;13.05;;
25449;SDS011;13371;52.080;5.624;2024-03-08T02:26:27;27.70;;;12.60;;
25449;SDS011;13371;52.080;5.624;2024-03-08T02:28:53;26.25;;;12.35;;
25449;SDS011;13371;52.080;5.624;2024-03-08T02:31:19;31.52;;;13.52;;
25449;SDS011;13371;52.080;5.624;2024-03-08T02:33:45;32.00;;;13.75;;
25449;SDS011;13371;52.080;5.624;2024-03-08T02:36:12;27.80;;;13.13;;
25449;SDS011;13371;52.080;5.624;2024-03-08T02:38:38;31.45;;;14.05;;
25449;SDS011;13371;52.080;5.624;2024-03-08T02:41:05;32.80;;;12.23;;
25449;SDS011;13371;52.080;5.624;2024-03-08T02:43:31;31.55;;;13.38;;
25449;SDS011;13371;52.080;5.624;2024-03-08T02:45:57;27.67;;;13.30;;
25449;SDS011;13371;52.080;5.624;2024-03-08T02:48:22;29.33;;;13.15;;
25449;SDS011;13371;52.080;5.624;2024-03-08T02:50:48;26.05;;;13.02;;
25449;SDS011;13371;52.080;5.624;2024-03-08T02:53:15;30.60;;;12.68;;
25449;SDS011;13371;52.080;5.624;2024-03-08T02:55:41;28.17;;;12.18;;
25449;SDS011;13371;52.080;5.624;2024-03-08T02:58:07;31.13;;;14.27;;
25449;SDS011;13371;52.080;5.624;2024-03-08T03:00:36;23.75;;;12.15;;
25449;SDS011;13371;52.080;5.624;2024-03-08T03:03:03;26.73;;;12.95;;
25449;SDS011;13371;52.080;5.624;2024-03-08T03:05:29;28.95;;;13.05;;
25449;SDS011;13371;52.080;5.624;2024-03-08T03:07:55;28.65;;;12.25;;
25449;SDS011;13371;52.080;5.624;2024-03-08T03:10:21;24.85;;;12.63;;
25449;SDS011;13371;52.080;5.624;2024-03-08T03:12:47;28.60;;;14.75;;
25449;SDS011;13371;52.080;5.624;2024-03-08T03:15:16;30.13;;;12.60;;
25449;SDS011;13371;52.080;5.624;2024-03-08T03:17:48;24.85;;;13.25;;
25449;SDS011;13371;52.080;5.624;2024-03-08T03:20:18;27.02;;;13.73;;
25449;SDS011;13371;52.080;5.624;2024-03-08T03:22:57;29.10;;;13.00;;
25449;SDS011;13371;52.080;5.624;2024-03-08T03:25:26;28.70;;;13.27;;
25449;SDS011;13371;52.080;5.624;2024-03-08T03:27:54;28.23;;;13.68;;
25449;SDS011;13371;52.080;5.624;2024-03-08T03:30:23;27.52;;;13.18;;
25449;SDS011;13371;52.080;5.624;2024-03-08T03:32:51;23.15;;;11.85;;
25449;SDS011;13371;52.080;5.624;2024-03-08T03:35:19;33.38;;;14.55;;
25449;SDS011;13371;52.080;5.624;2024-03-08T03:37:46;29.23;;;13.15;;
25449;SDS011;13371;52.080;5.624;2024-03-08T03:40:31;28.42;;;13.35;;
25449;SDS011;13371;52.080;5.624;2024-03-08T03:42:58;28.13;;;12.30;;
25449;SDS011;13371;52.080;5.624;2024-03-08T03:45:24;29.60;;;13.88;;
25449;SDS011;13371;52.080;5.624;2024-03-08T03:47:50;28.27;;;13.18;;
25449;SDS011;13371;52.080;5.624;2024-03-08T03:50:16;33.85;;;14.52;;
25449;SDS011;13371;52.080;5.624;2024-03-08T03:52:45;29.70;;;13.63;;
25449;SDS011;13371;52.080;5.624;2024-03-08T03:55:12;30.17;;;14.20;;
25449;SDS011;13371;52.080;5.624;2024-03-08T03:57:38;28.35;;;13.52;;
25449;SDS011;13371;52.080;5.624;2024-03-08T04:00:04;30.10;;;12.98;;
25449;SDS011;13371;52.080;5.624;2024-03-08T04:02:31;30.60;;;13.50;;
25449;SDS011;13371;52.080;5.624;2024-03-08T04:04:56;35.05;;;14.75;;
25449;SDS011;13371;52.080;5.624;2024-03-08T04:07:22;25.05;;;12.27;;
25449;SDS011;13371;52.080;5.624;2024-03-08T04:09:48;27.33;;;13.23;;
25449;SDS011;13371;52.080;5.624;2024-03-08T04:12:14;30.67;;;12.63;;
25449;SDS011;13371;52.080;5.624;2024-03-08T04:14:41;27.30;;;13.57;;
25449;SDS011;13371;52.080;5.624;2024-03-08T04:17:07;29.73;;;13.30;;
25449;SDS011;13371;52.080;5.624;2024-03-08T04:19:34;31.48;;;12.80;;
25449;SDS011;13371;52.080;5.624;2024-03-08T04:22:00;35.17;;;14.25;;
25449;SDS011;13371;52.080;5.624;2024-03-08T04:24:26;34.13;;;13.27;;
25449;SDS011;13371;52.080;5.624;2024-03-08T04:26:51;27.95;;;12.65;;
25449;SDS011;13371;52.080;5.624;2024-03-08T04:29:18;30.23;;;15.15;;
25449;SDS011;13371;52.080;5.624;2024-03-08T04:31:44;28.48;;;12.55;;
25449;SDS011;13371;52.080;5.624;2024-03-08T04:34:09;26.02;;;13.35;;
25449;SDS011;13371;52.080;5.624;2024-03-08T04:36:35;28.90;;;13.52;;
25449;SDS011;13371;52.080;5.624;2024-03-08T04:39:01;28.15;;;13.45;;
25449;SDS011;13371;52.080;5.624;2024-03-08T04:41:27;28.38;;;12.80;;
25449;SDS011;13371;52.080;5.624;2024-03-08T04:43:55;28.00;;;12.38;;
25449;SDS011;13371;52.080;5.624;2024-03-08T04:46:22;24.85;;;11.48;;
25449;SDS011;13371;52.080;5.624;2024-03-08T04:48:48;28.95;;;14.32;;
25449;SDS011;13371;52.080;5.624;2024-03-08T04:51:14;27.85;;;14.73;;
25449;SDS011;13371;52.080;5.624;2024-03-08T04:53:40;30.13;;;14.13;;
25449;SDS011;13371;52.080;5.624;2024-03-08T04:56:06;27.15;;;13.80;;
25449;SDS011;13371;52.080;5.624;2024-03-08T04:58:33;29.10;;;15.07;;
25449;SDS011;13371;52.080;5.624;2024-03-08T05:01:01;26.35;;;13.43;;
25449;SDS011;13371;52.080;5.624;2024-03-08T05:03:27;33.05;;;14.57;;
25449;SDS011;13371;52.080;5.624;2024-03-08T05:05:53;27.38;;;13.57;;
25449;SDS011;13371;52.080;5.624;2024-03-08T05:08:19;32.17;;;14.07;;
25449;SDS011;13371;52.080;5.624;2024-03-08T05:10:44;31.80;;;14.15;;
25449;SDS011;13371;52.080;5.624;2024-03-08T05:13:10;33.70;;;13.90;;
25449;SDS011;13371;52.080;5.624;2024-03-08T05:15:35;31.98;;;13.90;;
25449;SDS011;13371;52.080;5.624;2024-03-08T05:18:01;28.05;;;12.98;;
25449;SDS011;13371;52.080;5.624;2024-03-08T05:20:27;29.35;;;14.25;;
25449;SDS011;13371;52.080;5.624;2024-03-08T05:22:53;29.05;;;14.23;;
25449;SDS011;13371;52.080;5.624;2024-03-08T05:25:18;29.35;;;13.13;;
25449;SDS011;13371;52.080;5.624;2024-03-08T05:27:44;27.98;;;13.45;;
25449;SDS011;13371;52.080;5.624;2024-03-08T05:30:09;27.90;;;12.88;;
25449;SDS011;13371;52.080;5.624;2024-03-08T05:32:40;27.98;;;12.43;;
25449;SDS011;13371;52.080;5.624;2024-03-08T05:35:09;25.67;;;12.15;;
25449;SDS011;13371;52.080;5.624;2024-03-08T05:37:37;29.30;;;14.50;;
25449;SDS011;13371;52.080;5.624;2024-03-08T05:40:03;29.40;;;14.23;;
25449;SDS011;13371;52.080;5.624;2024-03-08T05:42:33;28.92;;;13.00;;
25449;SDS011;13371;52.080;5.624;2024-03-08T05:45:00;29.42;;;13.45;;
25449;SDS011;13371;52.080;5.624;2024-03-08T05:47:25;29.00;;;13.50;;
25449;SDS011;13371;52.080;5.624;2024-03-08T05:49:51;35.35;;;14.18;;
25449;SDS011;13371;52.080;5.624;2024-03-08T05:52:18;26.75;;;13.80;;
25449;SDS011;13371;52.080;5.624;2024-03-08T05:54:44;28.35;;;13.20;;
25449;SDS011;13371;52.080;5.624;2024-03-08T05:57:10;32.22;;;14.07;;
25449;SDS011;13371;52.080;5.624;2024-03-08T05:59:36;31.95;;;13.93;;
25449;SDS011;13371;52.080;5.624;2024-03-08T06:02:02;30.20;;;13.75;;
25449;SDS011;13371;52.080;5.624;2024-03-08T06:04:28;32.03;;;14.15;;
25449;SDS011;13371;52.080;5.624;2024-03-08T06:06:54;31.73;;;14.13;;
25449;SDS011;13371;52.080;5.624;2024-03-08T06:09:22;32.00;;;12.80;;
25449;SDS011;13371;52.080;5.624;2024-03-08T06:11:48;29.80;;;13.95;;
25449;SDS011;13371;52.080;5.624;2024-03-08T06:14:14;23.58;;;12.50;;
25449;SDS011;13371;52.080;5.624;2024-03-08T06:16:43;27.55;;;13.43;;
25449;SDS011;13371;52.080;5.624;2024-03-08T06:19:09;26.15;;;13.77;;
25449;SDS011;13371;52.080;5.624;2024-03-08T06:21:35;27.45;;;13.20;;
25449;SDS011;13371;52.080;5.624;2024-03-08T06:24:01;28.92;;;14.90;;
25449;SDS011;13371;52.080;5.624;2024-03-08T06:26:27;29.38;;;12.55;;
25449;SDS011;13371;52.080;5.624;2024-03-08T06:28:53;29.58;;;14.82;;
25449;SDS011;13371;52.080;5.624;2024-03-08T06:31:19;35.20;;;15.05;;
25449;SDS011;13371;52.080;5.624;2024-03-08T06:33:45;33.58;;;14.45;;
25449;SDS011;13371;52.080;5.624;2024-03-08T06:36:10;37.50;;;16.30;;
25449;SDS011;13371;52.080;5.624;2024-03-08T06:38:37;36.30;;;14.70;;
25449;SDS011;13371;52.080;5.624;2024-03-08T06:41:07;27.85;;;14.05;;
25449;SDS011;13371;52.080;5.624;2024-03-08T06:43:41;37.33;;;16.63;;
25449;SDS011;13371;52.080;5.624;2024-03-08T06:46:07;31.05;;;14.98;;
25449;SDS011;13371;52.080;5.624;2024-03-08T06:48:33;33.28;;;14.68;;
25449;SDS011;13371;52.080;5.624;2024-03-08T06:51:00;26.45;;;13.00;;
25449;SDS011;13371;52.080;5.624;2024-03-08T06:53:25;33.22;;;16.10;;
25449;SDS011;13371;52.080;5.624;2024-03-08T06:55:51;31.45;;;14.15;;
25449;SDS011;13371;52.080;5.624;2024-03-08T06:58:16;28.30;;;15.10;;
25449;SDS011;13371;52.080;5.624;2024-03-08T07:00:42;31.23;;;15.57;;
25449;SDS011;13371;52.080;5.624;2024-03-08T07:03:09;28.67;;;14.73;;
25449;SDS011;13371;52.080;5.624;2024-03-08T07:05:37;32.63;;;14.20;;
25449;SDS011;13371;52.080;5.624;2024-03-08T07:08:04;29.80;;;14.77;;
25449;SDS011;13371;52.080;5.624;2024-03-08T07:10:31;32.00;;;14.77;;
25449;SDS011;13371;52.080;5.624;2024-03-08T07:12:56;35.75;;;15.98;;
25449;SDS011;13371;52.080;5.624;2024-03-08T07:15:22;32.03;;;15.32;;
25449;SDS011;13371;52.080;5.624;2024-03-08T07:17:48;30.10;;;13.35;;
25449;SDS011;13371;52.080;5.624;2024-03-08T07:20:14;31.70;;;14.70;;
25449;SDS011;13371;52.080;5.624;2024-03-08T07:22:44;34.90;;;15.23;;
25449;SDS011;13371;52.080;5.624;2024-03-08T07:25:12;29.55;;;14.73;;
25449;SDS011;13371;52.080;5.624;2024-03-08T07:27:49;33.05;;;15.63;;
25449;SDS011;13371;52.080;5.624;2024-03-08T07:30:19;28.60;;;13.90;;
25449;SDS011;13371;52.080;5.624;2024-03-08T07:33:15;30.80;;;14.30;;
25449;SDS011;13371;52.080;5.624;2024-03-08T07:35:41;32.58;;;15.13;;
25449;SDS011;13371;52.080;5.624;2024-03-08T07:38:10;32.30;;;15.52;;
25449;SDS011;13371;52.080;5.624;2024-03-08T07:40:37;29.17;;;13.77;;
25449;SDS011;13371;52.080;5.624;2024-03-08T07:43:05;33.85;;;13.80;;
25449;SDS011;13371;52.080;5.624;2024-03-08T07:45:31;30.70;;;14.38;;
25449;SDS011;13371;52.080;5.624;2024-03-08T07:47:57;33.15;;;15.70;;
25449;SDS011;13371;52.080;5.624;2024-03-08T07:50:23;32.90;;;16.67;;
25449;SDS011;13371;52.080;5.624;2024-03-08T07:52:49;33.38;;;16.70;;
25449;SDS011;13371;52.080;5.624;2024-03-08T07:55:14;31.48;;;14.85;;
25449;SDS011;13371;52.080;5.624;2024-03-08T07:57:40;29.02;;;14.45;;
25449;SDS011;13371;52.080;5.624;2024-03-08T08:00:07;28.05;;;14.27;;
25449;SDS011;13371;52.080;5.624;2024-03-08T08:02:34;31.98;;;16.05;;
25449;SDS011;13371;52.080;5.624;2024-03-08T08:05:00;29.20;;;14.85;;
25449;SDS011;13371;52.080;5.624;2024-03-08T08:07:26;36.85;;;18.50;;
25449;SDS011;13371;52.080;5.624;2024-03-08T08:09:52;28.95;;;15.00;;
25449;SDS011;13371;52.080;5.624;2024-03-08T08:12:18;27.92;;;13.73;;
25449;SDS011;13371;52.080;5.624;2024-03-08T08:14:43;26.23;;;13.55;;
25449;SDS011;13371;52.080;5.624;2024-03-08T08:17:09;28.42;;;13.23;;
25449;SDS011;13371;52.080;5.624;2024-03-08T08:19:35;27.55;;;13.68;;
25449;SDS011;13371;52.080;5.624;2024-03-08T08:22:01;28.05;;;13.23;;
25449;SDS011;13371;52.080;5.624;2024-03-08T08:24:27;26.13;;;13.55;;
25449;SDS011;13371;52.080;5.624;2024-03-08T08:26:53;28.85;;;13.60;;
25449;SDS011;13371;52.080;5.624;2024-03-08T08:29:18;33.80;;;15.18;;
25449;SDS011;13371;52.080;5.624;2024-03-08T08:31:45;25.15;;;14.00;;
25449;SDS011;13371;52.080;5.624;2024-03-08T08:34:11;27.52;;;14.77;;
25449;SDS011;13371;52.080;5.624;2024-03-08T08:36:38;26.20;;;14.35;;
25449;SDS011;13371;52.080;5.624;2024-03-08T08:39:04;25.83;;;13.95;;
25449;SDS011;13371;52.080;5.624;2024-03-08T08:41:37;26.17;;;14.43;;
25449;SDS011;13371;52.080;5.624;2024-03-08T08:44:02;25.00;;;13.40;;
25449;SDS011;13371;52.080;5.624;2024-03-08T08:46:28;26.65;;;13.50;;
25449;SDS011;13371;52.080;5.624;2024-03-08T08:48:54;27.77;;;14.23;;
25449;SDS011;13371;52.080;5.624;2024-03-08T08:51:19;29.48;;;15.32;;
25449;SDS011;13371;52.080;5.624;2024-03-08T08:53:45;26.92;;;13.77;;
25449;SDS011;13371;52.080;5.624;2024-03-08T08:56:12;27.63;;;13.57;;
25449;SDS011;13371;52.080;5.624;2024-03-08T08:58:42;28.42;;;13.77;;
25449;SDS011;13371;52.080;5.624;2024-03-08T09:01:08;25.67;;;13.63;;
25449;SDS011;13371;52.080;5.624;2024-03-08T09:03:35;25.45;;;14.63;;
25449;SDS011;13371;52.080;5.624;2024-03-08T09:06:02;29.60;;;14.75;;
25449;SDS011;13371;52.080;5.624;2024-03-08T09:08:30;25.67;;;14.27;;
25449;SDS011;13371;52.080;5.624;2024-03-08T09:10:56;26.80;;;13.40;;
25449;SDS011;13371;52.080;5.624;2024-03-08T09:13:21;26.25;;;13.65;;
25449;SDS011;13371;52.080;5.624;2024-03-08T09:15:48;24.73;;;12.90;;
25449;SDS011;13371;52.080;5.624;2024-03-08T09:18:13;22.67;;;12.52;;
25449;SDS011;13371;52.080;5.624;2024-03-08T09:20:39;25.25;;;13.13;;
25449;SDS011;13371;52.080;5.624;2024-03-08T09:23:06;29.30;;;14.45;;
25449;SDS011;13371;52.080;5.624;2024-03-08T09:25:32;27.48;;;13.27;;
25449;SDS011;13371;52.080;5.624;2024-03-08T09:27:58;24.75;;;13.65;;
25449;SDS011;13371;52.080;5.624;2024-03-08T09:30:23;28.23;;;14.10;;
25449;SDS011;13371;52.080;5.624;2024-03-08T09:32:49;23.23;;;12.68;;
25449;SDS011;13371;52.080;5.624;2024-03-08T09:35:16;24.38;;;13.02;;
25449;SDS011;13371;52.080;5.624;2024-03-08T09:37:41;26.10;;;13.68;;
25449;SDS011;13371;52.080;5.624;2024-03-08T09:40:07;30.55;;;13.73;;
25449;SDS011;13371;52.080;5.624;2024-03-08T09:42:40;23.30;;;13.32;;
25449;SDS011;13371;52.080;5.624;2024-03-08T09:45:10;28.08;;;14.70;;
25449;SDS011;13371;52.080;5.624;2024-03-08T09:47:44;24.90;;;13.85;;
25449;SDS011;13371;52.080;5.624;2024-03-08T09:50:10;23.38;;;13.52;;
25449;SDS011;13371;52.080;5.624;2024-03-08T09:52:41;27.63;;;13.18;;
25449;SDS011;13371;52.080;5.624;2024-03-08T09:55:08;25.58;;;13.70;;
25449;SDS011;13371;52.080;5.624;2024-03-08T09:57:39;22.88;;;12.48;;
25449;SDS011;13371;52.080;5.624;2024-03-08T10:00:05;23.48;;;12.70;;
25449;SDS011;13371;52.080;5.624;2024-03-08T10:02:46;25.90;;;14.55;;
25449;SDS011;13371;52.080;5.624;2024-03-08T10:05:12;24.58;;;13.82;;
25449;SDS011;13371;52.080;5.624;2024-03-08T10:07:39;24.00;;;12.45;;
25449;SDS011;13371;52.080;5.624;2024-03-08T10:10:05;26.92;;;12.70;;
25449;SDS011;13371;52.080;5.624;2024-03-08T10:12:33;28.52;;;15.57;;
25449;SDS011;13371;52.080;5.624;2024-03-08T10:14:59;27.77;;;14.18;;
25449;SDS011;13371;52.080;5.624;2024-03-08T10:17:26;22.52;;;12.60;;
25449;SDS011;13371;52.080;5.624;2024-03-08T10:19:52;22.45;;;12.23;;
25449;SDS011;13371;52.080;5.624;2024-03-08T10:22:18;24.38;;;13.25;;
25449;SDS011;13371;52.080;5.624;2024-03-08T10:24:45;24.48;;;13.13;;
25449;SDS011;13371;52.080;5.624;2024-03-08T10:27:11;23.90;;;13.52;;
25449;SDS011;13371;52.080;5.624;2024-03-08T10:29:37;22.73;;;11.30;;
25449;SDS011;13371;52.080;5.624;2024-03-08T10:32:06;21.20;;;12.40;;
25449;SDS011;13371;52.080;5.624;2024-03-08T10:34:32;26.40;;;13.57;;
25449;SDS011;13371;52.080;5.624;2024-03-08T10:37:01;23.67;;;12.63;;
25449;SDS011;13371;52.080;5.624;2024-03-08T10:39:29;24.10;;;12.00;;
25449;SDS011;13371;52.080;5.624;2024-03-08T10:42:00;22.42;;;11.63;;
25449;SDS011;13371;52.080;5.624;2024-03-08T10:49:54;28.23;;;12.85;;
25449;SDS011;13371;52.080;5.624;2024-03-08T10:52:33;21.65;;;11.95;;
25449;SDS011;13371;52.080;5.624;2024-03-08T10:54:59;20.77;;;11.68;;
25449;SDS011;13371;52.080;5.624;2024-03-08T10:57:27;21.20;;;11.20;;
25449;SDS011;13371;52.080;5.624;2024-03-08T10:59:53;19.02;;;11.23;;
25449;SDS011;13371;52.080;5.624;2024-03-08T11:02:20;23.77;;;11.52;;
25449;SDS011;13371;52.080;5.624;2024-03-08T11:04:46;19.25;;;11.63;;
25449;SDS011;13371;52.080;5.624;2024-03-08T11:07:14;19.85;;;10.90;;
25449;SDS011;13371;52.080;5.624;2024-03-08T11:09:43;21.63;;;11.85;;
25449;SDS011;13371;52.080;5.624;2024-03-08T11:12:20;20.70;;;10.80;;
25449;SDS011;13371;52.080;5.624;2024-03-08T11:14:50;19.80;;;12.00;;
25449;SDS011;13371;52.080;5.624;2024-03-08T11:17:20;18.58;;;10.38;;
25449;SDS011;13371;52.080;5.624;2024-03-08T11:19:50;19.02;;;10.98;;
25449;SDS011;13371;52.080;5.624;2024-03-08T11:22:24;19.15;;;10.43;;
25449;SDS011;13371;52.080;5.624;2024-03-08T11:24:58;17.58;;;9.35;;
25449;SDS011;13371;52.080;5.624;2024-03-08T11:27:30;18.42;;;11.10;;
25449;SDS011;13371;52.080;5.624;2024-03-08T11:30:06;19.40;;;10.13;;
25449;SDS011;13371;52.080;5.624;2024-03-08T11:32:43;20.67;;;10.52;;
25449;SDS011;13371;52.080;5.624;2024-03-08T11:35:19;19.08;;;10.07;;
25449;SDS011;13371;52.080;5.624;2024-03-08T11:37:48;19.48;;;10.90;;
25449;SDS011;13371;52.080;5.624;2024-03-08T11:40:13;17.70;;;9.57;;
25449;SDS011;13371;52.080;5.624;2024-03-08T11:42:48;17.25;;;9.68;;
25449;SDS011;13371;52.080;5.624;2024-03-08T11:45:16;18.30;;;10.70;;
25449;SDS011;13371;52.080;5.624;2024-03-08T11:47:42;17.23;;;9.77;;
25449;SDS011;13371;52.080;5.624;2024-03-08T11:50:11;19.15;;;10.18;;
25449;SDS011;13371;52.080;5.624;2024-03-08T11:52:37;15.60;;;9.38;;
25449;SDS011;13371;52.080;5.624;2024-03-08T11:55:03;19.90;;;10.68;;
25449;SDS011;13371;52.080;5.624;2024-03-08T11:57:34;20.38;;;10.80;;
25449;SDS011;13371;52.080;5.624;2024-03-08T12:00:01;21.58;;;10.88;;
25449;SDS011;13371;52.080;5.624;2024-03-08T12:02:33;17.30;;;9.10;;
25449;SDS011;13371;52.080;5.624;2024-03-08T12:05:07;21.20;;;10.00;;
25449;SDS011;13371;52.080;5.624;2024-03-08T12:07:35;18.33;;;10.80;;
25449;SDS011;13371;52.080;5.624;2024-03-08T12:10:20;17.02;;;10.63;;
25449;SDS011;13371;52.080;5.624;2024-03-08T12:12:51;14.35;;;8.68;;
25449;SDS011;13371;52.080;5.624;2024-03-08T12:15:19;18.50;;;10.60;;
25449;SDS011;13371;52.080;5.624;2024-03-08T12:17:47;17.45;;;9.55;;
25449;SDS011;13371;52.080;5.624;2024-03-08T12:22:44;19.48;;;10.85;;
25449;SDS011;13371;52.080;5.624;2024-03-08T12:25:13;17.52;;;9.80;;
25449;SDS011;13371;52.080;5.624;2024-03-08T12:27:39;20.48;;;11.18;;
25449;SDS011;13371;52.080;5.624;2024-03-08T12:30:19;19.77;;;10.60;;
25449;SDS011;13371;52.080;5.624;2024-03-08T12:32:58;20.33;;;10.38;;
25449;SDS011;13371;52.080;5.624;2024-03-08T12:35:25;21.10;;;10.45;;
25449;SDS011;13371;52.080;5.624;2024-03-08T12:37:53;20.20;;;10.32;;
25449;SDS011;13371;52.080;5.624;2024-03-08T12:40:29;23.85;;;10.38;;
25449;SDS011;13371;52.080;5.624;2024-03-08T12:42:59;17.40;;;9.90;;
25449;SDS011;13371;52.080;5.624;2024-03-08T12:45:26;19.25;;;10.43;;
25449;SDS011;13371;52.080;5.624;2024-03-08T12:47:52;16.48;;;9.70;;
25449;SDS011;13371;52.080;5.624;2024-03-08T12:50:19;18.42;;;9.40;;
25449;SDS011;13371;52.080;5.624;2024-03-08T12:52:45;19.00;;;10.52;;
25449;SDS011;13371;52.080;5.624;2024-03-08T12:55:11;16.10;;;9.70;;
25449;SDS011;13371;52.080;5.624;2024-03-08T12:57:37;21.50;;;12.27;;
25449;SDS011;13371;52.080;5.624;2024-03-08T13:00:04;19.05;;;10.35;;
25449;SDS011;13371;52.080;5.624;2024-03-08T13:02:30;22.00;;;11.43;;
25449;SDS011;13371;52.080;5.624;2024-03-08T13:04:58;17.60;;;9.93;;
25449;SDS011;13371;52.080;5.624;2024-03-08T13:07:24;18.02;;;10.05;;
25449;SDS011;13371;52.080;5.624;2024-03-08T13:09:53;24.23;;;11.52;;
25449;SDS011;13371;52.080;5.624;2024-03-08T13:12:19;18.42;;;10.07;;
25449;SDS011;13371;52.080;5.624;2024-03-08T13:14:45;16.17;;;9.40;;
25449;SDS011;13371;52.080;5.624;2024-03-08T13:17:12;20.25;;;10.95;;
25449;SDS011;13371;52.080;5.624;2024-03-08T13:19:45;17.88;;;10.40;;
25449;SDS011;13371;52.080;5.624;2024-03-08T13:22:11;17.10;;;10.20;;
25449;SDS011;13371;52.080;5.624;2024-03-08T13:24:42;22.17;;;11.73;;
25449;SDS011;13371;52.080;5.624;2024-03-08T13:27:08;26.27;;;11.32;;
25449;SDS011;13371;52.080;5.624;2024-03-08T13:29:47;16.85;;;9.50;;
25449;SDS011;13371;52.080;5.624;2024-03-08T13:32:15;18.40;;;10.18;;
25449;SDS011;13371;52.080;5.624;2024-03-08T13:34:45;18.98;;;10.43;;
25449;SDS011;13371;52.080;5.624;2024-03-08T13:37:12;19.15;;;10.77;;
25449;SDS011;13371;52.080;5.624;2024-03-08T13:39:40;18.77;;;10.20;;
25449;SDS011;13371;52.080;5.624;2024-03-08T13:42:08;20.80;;;10.75;;
25449;SDS011;13371;52.080;5.624;2024-03-08T13:44:47;19.58;;;11.60;;
25449;SDS011;13371;52.080;5.624;2024-03-08T13:47:17;20.15;;;10.88;;
25449;SDS011;13371;52.080;5.624;2024-03-08T13:49:43;19.80;;;10.07;;
25449;SDS011;13371;52.080;5.624;2024-03-08T13:52:10;19.90;;;11.13;;
25449;SDS011;13371;52.080;5.624;2024-03-08T13:54:38;20.80;;;11.65;;
25449;SDS011;13371;52.080;5.624;2024-03-08T13:57:03;25.88;;;11.15;;
25449;SDS011;13371;52.080;5.624;2024-03-08T13:59:35;18.42;;;11.20;;
25449;SDS011;13371;52.080;5.624;2024-03-08T14:02:01;18.15;;;10.23;;
25449;SDS011;13371;52.080;5.624;2024-03-08T14:04:28;21.95;;;11.00;;
25449;SDS011;13371;52.080;5.624;2024-03-08T14:06:54;19.45;;;10.10;;
25449;SDS011;13371;52.080;5.624;2024-03-08T14:09:25;20.60;;;10.73;;
25449;SDS011;13371;52.080;5.624;2024-03-08T14:11:57;18.08;;;10.48;;
25449;SDS011;13371;52.080;5.624;2024-03-08T14:14:23;17.23;;;8.68;;
25449;SDS011;13371;52.080;5.624;2024-03-08T14:16:49;16.73;;;9.68;;
25449;SDS011;13371;52.080;5.624;2024-03-08T14:19:19;21.00;;;10.63;;
25449;SDS011;13371;52.080;5.624;2024-03-08T14:21:45;17.48;;;9.88;;
25449;SDS011;13371;52.080;5.624;2024-03-08T14:24:12;20.15;;;10.75;;
25449;SDS011;13371;52.080;5.624;2024-03-08T14:26:39;19.20;;;10.20;;
25449;SDS011;13371;52.080;5.624;2024-03-08T14:29:07;18.75;;;11.32;;
25449;SDS011;13371;52.080;5.624;2024-03-08T14:31:34;21.65;;;10.38;;